Raymondville, Texas
Current Conditions -  °F | °C
As of 10:52 AM on Thursday 27 Nov 2014 (Local Time) from KHRL Reporting Station
Clear Clear  
Wind Chill: 22°   Ceiling: Unl
Heat Index: 22°   Visibility: 10mi
Dew Point: 12°   Wind: 7mph
Humidity: 53%   Direction: 210°SSW
Pressure: 30.43"   Gusts: NA
Location:  26.48°N, 97.78°W
Report Text: KHRL 271652Z 21006KT 10SM CLR 22/12 A3043 RMK AO2 SLP303 T02220122 $
Loading
Personal Weather Stations






























Interactive Weather Map New forecast layout! Learn more

10-Day Weather Forecast

Advertisements
Track Severe Weather on mobile